Accueil
METAR-TAF:

METAR-TAF

Aéroports :

Aéroport Andorre

La Seu d'Urgell, Espagne

latitude: 42-20-29N, longitude: 001-24-17E, altitude: 802 m

Observation

Le bulletin a été fait il y a 17 minutes, à 09:00 UTC
Vent 2 kt de direction variable
Température 10°C
Humidité 43%
Pression 1027 hPa
Visibilité 10 km ou plus
pas de nuages en-dessous de 1500 mètres et pas de cumulonimbus.

METAR: LESU 240900Z VRB02KT CAVOK 10/M02 Q1027

Heure: 10:17 (09:17 UTC)

Prévision

Le bulletin a été fait il y a 1 heure et 17 minutes, à 08:00 UTC
Prévision valable du 24 à 09 UTC au 25 à 09 UTC
Vent 3 kt de direction variable
Visibilité 10 km ou plus
Quelques nuages à une hauteur de 5000 ft
Temporairement
du 24 à 13 UTC au 24 à 18 UTC
Vent 7 kt de nord

TAF: LESU 240800Z 2409/2509 VRB03KT 9999 FEW050 TX23/2414Z TN00/2506Z TEMPO 2413/2418 01007KT

Observations et prévisions météorologiques de plus de 4000 aéroports (messages METAR et TAF).

Les stations disponibles sont représentées par des disques jaunes et rouges sur la carte.

Passer la souris dessus pour voir le nom de la station.

Cliquer dessus pour voir les observations et prévisions météorologiques.

Pour changer de carte: cliquez sur les boutons verts avec une croix noire pour zoomer, sur le bouton vert avec un tiret pour effectuer un zoom arrière, ou sur les flèches vertes pour les cartes adjacentes.


METAR-TAF: